Time;durP1;ratioP1;P1;durP2;ratioP2;P2;SDS_P1;SDS_P2;PMS_P1;PMS_P2;Temp;Humidity;BMP_temperature;BMP_pressure;BME280_temperature;BME280_humidity;BME280_pressure;Samples;Min_cycle;Max_cycle;Signal;HPM_P1;HPM_P2
2021/05/28 00:01:16;;;;;;;2.90;2.70;;;10.40;99.90;;;;;;5055751;28;20048;-94
2021/05/28 00:03:42;;;;;;;2.75;2.65;;;10.30;99.90;;;;;;5055601;28;20047;-94
2021/05/28 00:06:09;;;;;;;4.43;2.90;;;10.30;99.90;;;;;;5058930;28;20079;-94
2021/05/28 00:08:36;;;;;;;2.88;2.78;;;10.30;99.90;;;;;;5055210;28;20044;-94
2021/05/28 00:11:03;;;;;;;2.80;2.65;;;10.20;99.90;;;;;;5055707;28;20056;-94
2021/05/28 00:13:29;;;;;;;5.28;2.70;;;10.10;99.90;;;;;;5055080;28;20048;-94
2021/05/28 00:15:56;;;;;;;2.92;2.72;;;10.00;99.90;;;;;;5055583;28;20131;-93
2021/05/28 00:18:23;;;;;;;3.15;2.78;;;10.00;99.90;;;;;;5055065;28;20060;-93
2021/05/28 00:20:50;;;;;;;3.00;2.78;;;10.00;99.90;;;;;;5055370;28;20071;-93
2021/05/28 00:23:17;;;;;;;9.05;3.88;;;9.90;99.90;;;;;;5055289;28;20493;-93
2021/05/28 00:25:43;;;;;;;5.50;3.00;;;9.90;99.90;;;;;;5055234;28;20044;-93
2021/05/28 00:28:10;;;;;;;3.15;2.95;;;9.90;99.90;;;;;;5055444;28;20048;-93
2021/05/28 00:30:37;;;;;;;3.67;3.38;;;9.90;99.90;;;;;;5057764;28;20504;-93
2021/05/28 00:33:04;;;;;;;3.50;3.20;;;9.90;99.90;;;;;;5058392;28;20055;-94
2021/05/28 00:35:31;;;;;;;3.45;3.25;;;9.90;99.90;;;;;;5058817;28;20527;-95
2021/05/28 00:37:58;;;;;;;3.65;3.10;;;9.80;99.90;;;;;;5058677;28;20058;-94
2021/05/28 00:40:25;;;;;;;3.47;3.28;;;9.80;99.90;;;;;;5058588;28;20049;-93
2021/05/28 00:42:52;;;;;;;3.53;3.22;;;9.80;99.90;;;;;;5058638;28;20051;-93
2021/05/28 00:45:19;;;;;;;11.77;3.88;;;9.70;99.90;;;;;;5058429;28;20066;-93
2021/05/28 00:47:45;;;;;;;4.32;3.20;;;9.70;99.90;;;;;;5058650;28;20048;-93
2021/05/28 00:50:12;;;;;;;3.53;3.20;;;9.80;99.90;;;;;;5058381;28;20484;-93
2021/05/28 00:52:39;;;;;;;3.38;3.13;;;9.70;99.90;;;;;;5058047;28;20044;-93
2021/05/28 00:55:08;;;;;;;3.25;3.05;;;9.70;99.90;;;;;;5059461;28;20068;-94
2021/05/28 00:57:35;;;;;;;3.65;3.35;;;9.70;99.90;;;;;;5058640;28;20044;-93
2021/05/28 01:00:04;;;;;;;3.33;3.13;;;9.60;99.90;;;;;;5058749;28;20136;-92
2021/05/28 01:02:32;;;;;;;3.80;3.45;;;9.60;99.90;;;;;;5058253;28;20048;-94
2021/05/28 01:04:59;;;;;;;3.10;2.90;;;9.60;99.90;;;;;;5057991;28;20139;-93
2021/05/28 01:07:26;;;;;;;3.42;3.22;;;9.60;99.90;;;;;;5058369;28;20056;-92
2021/05/28 01:09:53;;;;;;;4.00;3.58;;;9.60;99.90;;;;;;5058607;28;20059;-92
2021/05/28 01:12:19;;;;;;;5.15;3.30;;;9.60;99.90;;;;;;5069730;28;20045;-92
2021/05/28 01:14:50;;;;;;;5.90;3.63;;;9.60;99.90;;;;;;5063276;28;20059;-94
2021/05/28 01:17:17;;;;;;;4.93;3.47;;;9.70;99.90;;;;;;5058172;28;20512;-92
2021/05/28 01:19:44;;;;;;;4.07;3.50;;;9.70;99.90;;;;;;5057975;28;20058;-92
2021/05/28 01:22:10;;;;;;;3.60;3.30;;;9.80;99.90;;;;;;5058035;28;20047;-92
2021/05/28 01:24:37;;;;;;;3.75;3.25;;;9.80;99.90;;;;;;5057840;28;20052;-93
2021/05/28 01:27:04;;;;;;;4.03;3.63;;;9.80;99.90;;;;;;5057809;28;20518;-92
2021/05/28 01:29:31;;;;;;;3.45;3.15;;;9.80;99.90;;;;;;5057517;28;20044;-93
2021/05/28 01:31:58;;;;;;;3.40;3.20;;;9.80;99.90;;;;;;5057593;28;20074;-93
2021/05/28 01:34:24;;;;;;;3.45;3.20;;;9.80;99.90;;;;;;5057210;28;20139;-93
2021/05/28 01:36:51;;;;;;;3.53;3.33;;;9.80;99.90;;;;;;5057534;28;20048;-93
2021/05/28 01:39:18;;;;;;;4.13;3.65;;;9.90;99.90;;;;;;5057730;28;20059;-92
2021/05/28 01:41:45;;;;;;;3.42;3.22;;;9.80;99.90;;;;;;5057223;28;20408;-92
2021/05/28 01:44:12;;;;;;;4.30;3.90;;;9.90;99.90;;;;;;5057795;28;20049;-92
2021/05/28 01:46:39;;;;;;;3.75;3.40;;;9.90;99.90;;;;;;5056877;28;20156;-93
2021/05/28 01:49:06;;;;;;;4.68;3.95;;;9.80;99.90;;;;;;5057410;28;20052;-92
2021/05/28 01:51:33;;;;;;;3.75;3.55;;;9.90;99.90;;;;;;5057330;28;20094;-93
2021/05/28 01:54:00;;;;;;;3.72;3.53;;;9.80;99.90;;;;;;5056991;28;20051;-92
2021/05/28 01:56:28;;;;;;;6.40;3.70;;;9.80;99.90;;;;;;5057134;28;20045;-93
2021/05/28 01:58:55;;;;;;;3.30;2.95;;;9.90;99.90;;;;;;5057124;28;20091;-93
2021/05/28 02:01:22;;;;;;;3.90;3.58;;;9.90;99.90;;;;;;5057156;28;20055;-93
2021/05/28 02:03:49;;;;;;;8.25;3.50;;;9.80;99.90;;;;;;5057135;28;20048;-93
2021/05/28 02:06:15;;;;;;;3.83;3.45;;;9.80;99.90;;;;;;5056583;28;20416;-93
2021/05/28 02:08:42;;;;;;;3.30;3.00;;;9.80;99.90;;;;;;5057021;28;20139;-92
2021/05/28 02:11:09;;;;;;;3.83;3.50;;;9.70;99.90;;;;;;5056952;28;20123;-92
2021/05/28 02:13:36;;;;;;;4.00;3.58;;;9.70;99.90;;;;;;5056764;28;20056;-93
2021/05/28 02:16:03;;;;;;;5.78;3.20;;;9.70;99.90;;;;;;5057032;28;20082;-92
2021/05/28 02:18:30;;;;;;;4.85;3.65;;;9.70;99.90;;;;;;5056535;28;20139;-92
2021/05/28 02:20:57;;;;;;;5.88;4.20;;;9.80;99.90;;;;;;5056968;28;20060;-92
2021/05/28 02:23:24;;;;;;;3.90;3.60;;;9.80;99.90;;;;;;5056759;28;20048;-90
2021/05/28 02:25:51;;;;;;;5.28;3.53;;;9.80;99.90;;;;;;5056590;28;20052;-92
2021/05/28 02:28:17;;;;;;;3.80;3.58;;;9.70;99.90;;;;;;5057196;28;20044;-92
2021/05/28 02:30:44;;;;;;;4.20;3.83;;;9.70;99.90;;;;;;5063341;28;20050;-93
2021/05/28 02:33:11;;;;;;;3.70;3.50;;;9.70;99.90;;;;;;5058137;28;20589;-93
2021/05/28 02:35:38;;;;;;;4.40;3.78;;;9.80;99.90;;;;;;5056552;28;20060;-92
2021/05/28 02:38:04;;;;;;;4.10;3.80;;;9.80;99.90;;;;;;5056655;28;20495;-92
2021/05/28 02:40:31;;;;;;;5.05;3.58;;;9.80;99.90;;;;;;5056268;28;20048;-93
2021/05/28 02:42:57;;;;;;;4.20;3.90;;;9.70;99.90;;;;;;5056507;28;20052;-93
2021/05/28 02:45:24;;;;;;;3.67;3.47;;;9.60;99.90;;;;;;5056159;28;20411;-92
2021/05/28 02:47:51;;;;;;;5.38;3.70;;;9.60;99.90;;;;;;5056335;28;20403;-93
2021/05/28 02:50:18;;;;;;;6.05;3.92;;;9.60;99.90;;;;;;5056300;28;20566;-92
2021/05/28 02:52:44;;;;;;;4.97;3.70;;;9.60;99.90;;;;;;5055632;28;20404;-92
2021/05/28 02:55:11;;;;;;;3.47;3.28;;;9.60;99.90;;;;;;5056223;28;20048;-92
2021/05/28 02:57:38;;;;;;;4.55;3.58;;;9.60;99.90;;;;;;5056190;28;20044;-92
2021/05/28 03:00:06;;;;;;;5.47;3.88;;;9.60;99.90;;;;;;5056436;28;20056;-94
2021/05/28 03:02:33;;;;;;;4.55;4.15;;;9.50;99.90;;;;;;5056099;28;20151;-93
2021/05/28 03:04:59;;;;;;;4.47;4.07;;;9.50;99.90;;;;;;5055626;28;20057;-92
2021/05/28 03:07:26;;;;;;;6.10;4.40;;;9.40;99.90;;;;;;5056265;28;20542;-93
2021/05/28 03:09:53;;;;;;;4.65;4.00;;;9.50;99.90;;;;;;5055957;28;20463;-93
2021/05/28 03:12:20;;;;;;;4.75;4.30;;;9.50;99.90;;;;;;5056252;28;20119;-93
2021/05/28 03:14:47;;;;;;;4.50;4.20;;;9.50;99.90;;;;;;5056586;28;20407;-92
2021/05/28 03:17:14;;;;;;;4.32;4.00;;;9.50;99.90;;;;;;5057263;28;20053;-92
2021/05/28 03:19:44;;;;;;;4.72;4.43;;;9.50;99.90;;;;;;5058506;28;20492;-92
2021/05/28 03:22:32;;;;;;;4.93;4.60;;;9.50;99.90;;;;;;5055975;28;20040;-93
2021/05/28 03:25:10;;;;;;;5.32;4.53;;;9.50;99.90;;;;;;5056690;28;20552;-92
2021/05/28 03:27:37;;;;;;;4.38;3.97;;;9.50;99.90;;;;;;5058381;28;20048;-91
2021/05/28 03:30:06;;;;;;;4.88;4.30;;;9.40;99.90;;;;;;5057715;28;20051;-93
2021/05/28 03:32:33;;;;;;;4.82;4.43;;;9.40;99.90;;;;;;5058268;28;20048;-93
2021/05/28 03:35:00;;;;;;;4.90;4.50;;;9.50;99.90;;;;;;5059286;28;20135;-92
2021/05/28 03:37:27;;;;;;;4.60;4.20;;;9.50;99.90;;;;;;5056661;28;20553;-92
2021/05/28 03:39:54;;;;;;;5.35;4.57;;;9.50;99.90;;;;;;5055908;28;20083;-93
2021/05/28 03:42:20;;;;;;;13.15;5.55;;;9.50;99.90;;;;;;5055877;28;20044;-92
2021/05/28 03:44:47;;;;;;;4.97;4.40;;;9.50;99.90;;;;;;5056297;28;20045;-92
2021/05/28 03:47:15;;;;;;;5.35;4.70;;;9.50;99.90;;;;;;5058921;28;20071;-93
2021/05/28 03:49:42;;;;;;;6.20;4.43;;;9.50;99.90;;;;;;5059315;28;20113;-92
2021/05/28 03:52:09;;;;;;;4.78;4.38;;;9.50;99.90;;;;;;5056039;28;20139;-92
2021/05/28 03:54:36;;;;;;;5.65;4.80;;;9.50;99.90;;;;;;5055362;28;20303;-92
2021/05/28 03:57:03;;;;;;;4.53;4.20;;;9.60;99.90;;;;;;5055779;28;20047;-91
2021/05/28 03:59:30;;;;;;;4.03;3.72;;;9.50;99.90;;;;;;5055520;28;20066;-91
2021/05/28 04:01:57;;;;;;;7.60;4.72;;;9.60;99.90;;;;;;5056169;28;20049;-92
2021/05/28 04:04:23;;;;;;;4.40;4.10;;;9.60;99.90;;;;;;5057496;28;20055;-91
2021/05/28 04:06:50;;;;;;;6.72;4.53;;;9.50;99.90;;;;;;5059409;28;20048;-91
2021/05/28 04:09:17;;;;;;;4.22;3.92;;;9.50;99.90;;;;;;5060160;28;20052;-90
2021/05/28 04:11:44;;;;;;;5.18;4.68;;;9.50;99.90;;;;;;5060225;28;20052;-92
2021/05/28 04:14:11;;;;;;;4.53;4.10;;;9.60;99.90;;;;;;5059945;28;20040;-91
2021/05/28 04:16:37;;;;;;;4.65;3.95;;;9.70;99.90;;;;;;5059196;28;20052;-92
2021/05/28 04:19:04;;;;;;;5.97;4.45;;;9.70;99.90;;;;;;5059680;28;20052;-92
2021/05/28 04:21:31;;;;;;;5.30;4.82;;;9.70;99.90;;;;;;5059380;28;20059;-92
2021/05/28 04:23:57;;;;;;;5.53;3.67;;;9.80;99.90;;;;;;5059401;28;20052;-92
2021/05/28 04:26:24;;;;;;;3.70;3.40;;;9.80;99.90;;;;;;5058737;28;20059;-92
2021/05/28 04:28:51;;;;;;;4.78;3.63;;;9.80;99.90;;;;;;5059073;28;20052;-92
2021/05/28 04:31:17;;;;;;;4.70;4.30;;;9.90;99.90;;;;;;5058911;28;20044;-91
2021/05/28 04:33:44;;;;;;;5.70;4.40;;;9.90;99.90;;;;;;5058643;28;20060;-91
2021/05/28 04:36:11;;;;;;;4.20;3.83;;;9.80;99.90;;;;;;5058707;28;20048;-92
2021/05/28 04:38:38;;;;;;;6.97;4.47;;;9.80;99.90;;;;;;5058712;28;20068;-91
2021/05/28 04:41:05;;;;;;;6.05;4.45;;;9.90;99.90;;;;;;5076437;28;20090;-92
2021/05/28 04:43:31;;;;;;;9.02;4.55;;;9.80;99.90;;;;;;5058363;28;20054;-90
2021/05/28 04:45:58;;;;;;;5.93;4.63;;;9.90;99.90;;;;;;5058553;28;20055;-91
2021/05/28 04:48:25;;;;;;;7.55;4.70;;;10.00;99.90;;;;;;5058606;28;20048;-91
2021/05/28 04:50:52;;;;;;;8.50;4.93;;;9.90;99.90;;;;;;5058479;28;20059;-92
2021/05/28 04:53:19;;;;;;;7.03;5.10;;;9.80;99.90;;;;;;5058226;28;20051;-91
2021/05/28 04:55:45;;;;;;;4.50;3.67;;;9.90;99.90;;;;;;5058154;28;20150;-91
2021/05/28 04:58:12;;;;;;;7.32;3.70;;;10.00;99.90;;;;;;5058510;28;20416;-91
2021/05/28 05:00:39;;;;;;;4.43;4.03;;;10.10;99.90;;;;;;5057981;28;20054;-92
2021/05/28 05:03:06;;;;;;;7.35;4.25;;;10.10;99.90;;;;;;5058697;28;20491;-92
2021/05/28 05:05:32;;;;;;;4.97;3.60;;;10.20;99.90;;;;;;5060581;28;20104;-92
2021/05/28 05:07:59;;;;;;;5.60;3.40;;;10.20;99.90;;;;;;5059288;28;20053;-91
2021/05/28 05:10:26;;;;;;;3.97;3.38;;;10.30;99.90;;;;;;5057878;28;20072;-92
2021/05/28 05:12:53;;;;;;;4.63;3.08;;;10.30;99.90;;;;;;5057887;28;20096;-91
2021/05/28 05:15:20;;;;;;;4.15;3.28;;;10.40;99.90;;;;;;5057479;28;20055;-92
2021/05/28 05:17:47;;;;;;;5.20;3.30;;;10.40;99.90;;;;;;5058085;28;20044;-92
2021/05/28 05:20:14;;;;;;;3.00;2.83;;;10.40;99.90;;;;;;5057825;28;20390;-92
2021/05/28 05:22:41;;;;;;;4.22;3.92;;;10.40;99.90;;;;;;5057704;28;20045;-92
2021/05/28 05:25:11;;;;;;;5.72;4.10;;;10.50;99.90;;;;;;5058175;28;20056;-91
2021/05/28 05:27:37;;;;;;;4.88;3.60;;;10.60;99.90;;;;;;5057877;28;20075;-91
2021/05/28 05:30:05;;;;;;;6.82;3.85;;;10.60;99.90;;;;;;5057682;28;20063;-91
2021/05/28 05:32:32;;;;;;;5.03;4.03;;;10.70;99.90;;;;;;5057622;28;20044;-91
2021/05/28 05:34:58;;;;;;;3.78;3.47;;;10.70;99.90;;;;;;5057132;28;20522;-91
2021/05/28 05:37:25;;;;;;;5.38;4.10;;;10.70;99.90;;;;;;5057549;28;20473;-91
2021/05/28 05:39:52;;;;;;;6.22;3.75;;;10.60;99.90;;;;;;5057687;28;20057;-91
2021/05/28 05:42:18;;;;;;;4.45;3.80;;;10.70;99.90;;;;;;5057098;28;20045;-91
2021/05/28 05:44:45;;;;;;;5.72;3.05;;;10.90;99.90;;;;;;5057600;28;20052;-91
2021/05/28 05:47:12;;;;;;;3.10;2.90;;;10.90;99.90;;;;;;5057465;28;20404;-91
2021/05/28 05:49:39;;;;;;;3.30;3.03;;;10.90;99.90;;;;;;5057500;28;20131;-91
2021/05/28 05:52:06;;;;;;;4.28;3.30;;;11.00;99.90;;;;;;5057287;28;20055;-92
2021/05/28 05:54:33;;;;;;;3.80;3.53;;;11.10;99.90;;;;;;5056970;28;20052;-92
2021/05/28 05:57:00;;;;;;;4.82;3.35;;;11.20;99.90;;;;;;5057000;28;20055;-91
2021/05/28 05:59:30;;;;;;;4.20;3.03;;;11.30;99.90;;;;;;5057253;28;20052;-91
2021/05/28 06:01:57;;;;;;;2.97;2.80;;;11.40;99.90;;;;;;5057731;28;20052;-92
2021/05/28 06:04:24;;;;;;;2.67;2.47;;;11.40;99.90;;;;;;5056905;28;20139;-92
2021/05/28 06:06:50;;;;;;;5.22;2.42;;;11.40;99.90;;;;;;5056583;28;20059;-92
2021/05/28 06:09:17;;;;;;;2.50;2.30;;;11.40;99.90;;;;;;5057144;28;20079;-92
2021/05/28 06:11:44;;;;;;;3.20;2.17;;;11.40;99.90;;;;;;5056996;28;20049;-91
2021/05/28 06:14:11;;;;;;;6.55;2.50;;;11.50;99.90;;;;;;5056888;28;20044;-91
2021/05/28 06:16:38;;;;;;;4.75;2.30;;;11.70;99.90;;;;;;5056788;28;20059;-92
2021/05/28 06:19:04;;;;;;;6.05;1.90;;;11.60;99.90;;;;;;5056706;28;20048;-93
2021/05/28 06:21:32;;;;;;;2.80;2.10;;;11.60;99.90;;;;;;5056882;28;20056;-93
2021/05/28 06:23:59;;;;;;;3.83;1.83;;;11.70;99.90;;;;;;5059110;28;20050;-92
2021/05/28 06:26:25;;;;;;;2.10;1.70;;;11.80;99.90;;;;;;5056516;28;20057;-92
2021/05/28 06:28:52;;;;;;;5.13;2.15;;;11.70;99.90;;;;;;5056614;28;20215;-92
2021/05/28 06:31:19;;;;;;;3.15;1.83;;;11.70;99.90;;;;;;5057011;28;20145;-93
2021/05/28 06:33:45;;;;;;;5.65;1.73;;;11.70;99.90;;;;;;5053803;28;20045;-93
2021/05/28 06:36:12;;;;;;;3.60;1.52;;;11.80;99.90;;;;;;5056316;28;20050;-92
2021/05/28 06:38:39;;;;;;;6.22;1.60;;;11.90;99.90;;;;;;5056811;28;20503;-93
2021/05/28 06:41:06;;;;;;;7.10;2.17;;;11.80;99.90;;;;;;5056664;28;20439;-93
2021/05/28 06:43:33;;;;;;;4.07;1.40;;;12.10;99.90;;;;;;5056584;28;20046;-94
2021/05/28 06:46:00;;;;;;;2.25;1.85;;;12.10;99.90;;;;;;5056338;28;20103;-93
2021/05/28 06:48:26;;;;;;;6.57;2.60;;;12.30;99.90;;;;;;5057067;28;20108;-95
2021/05/28 06:51:01;;;;;;;5.20;2.17;;;12.30;99.90;;;;;;5077596;28;20052;-94
2021/05/28 06:53:27;;;;;;;20.10;13.65;;;12.40;99.90;;;;;;5056273;28;20127;-94
2021/05/28 06:55:54;;;;;;;4.07;3.13;;;12.40;99.90;;;;;;5057140;28;20135;-93
2021/05/28 06:58:21;;;;;;;8.10;3.08;;;12.50;99.90;;;;;;5055830;28;20400;-94
2021/05/28 07:00:51;;;;;;;3.33;2.60;;;12.60;99.90;;;;;;5057119;28;20052;-93
2021/05/28 07:03:18;;;;;;;4.43;2.40;;;12.70;99.90;;;;;;5073497;28;20047;-93
2021/05/28 07:05:45;;;;;;;5.10;3.00;;;12.80;99.90;;;;;;5056214;28;20467;-94
2021/05/28 07:08:12;;;;;;;2.55;1.70;;;13.00;99.90;;;;;;5056473;28;20044;-93
2021/05/28 07:10:39;;;;;;;6.90;3.33;;;13.30;99.90;;;;;;5056042;28;20070;-93
2021/05/28 07:13:06;;;;;;;5.30;3.08;;;13.40;99.90;;;;;;5055894;28;20052;-94
2021/05/28 07:15:33;;;;;;;4.35;3.95;;;14.00;99.90;;;;;;5056538;28;20052;-94
2021/05/28 07:18:00;;;;;;;4.13;1.30;;;14.00;99.90;;;;;;5057973;28;20411;-92
2021/05/28 07:20:27;;;;;;;2.78;1.55;;;14.00;99.90;;;;;;5073918;28;20048;-95
2021/05/28 07:22:54;;;;;;;2.38;1.38;;;14.30;99.90;;;;;;5056668;28;20048;-93
2021/05/28 07:25:21;;;;;;;4.38;1.60;;;14.60;99.90;;;;;;5073128;28;20131;-94
2021/05/28 07:27:47;;;;;;;2.47;1.13;;;14.70;99.90;;;;;;5055915;28;20055;-92
2021/05/28 07:30:15;;;;;;;3.35;1.33;;;14.80;99.90;;;;;;5058052;28;20045;-96
2021/05/28 07:32:42;;;;;;;1.58;0.93;;;14.80;99.90;;;;;;5055778;28;20067;-92
2021/05/28 07:35:10;;;;;;;2.42;0.95;;;15.20;99.90;;;;;;5055514;28;20143;-93
2021/05/28 07:37:37;;;;;;;2.30;0.95;;;15.30;99.90;;;;;;5056138;28;20045;-92
2021/05/28 07:40:06;;;;;;;4.25;1.20;;;15.60;99.90;;;;;;5061912;28;20057;-96
2021/05/28 07:42:33;;;;;;;3.40;0.70;;;15.70;99.90;;;;;;5061868;28;20131;-93
2021/05/28 07:45:00;;;;;;;5.38;0.90;;;16.00;99.90;;;;;;5059612;28;20049;-93
2021/05/28 07:47:27;;;;;;;2.70;0.85;;;16.20;99.90;;;;;;5059952;28;20048;-94
2021/05/28 07:49:55;;;;;;;2.08;1.27;;;16.30;99.90;;;;;;5063359;28;20059;-94
2021/05/28 07:52:29;;;;;;;3.75;1.20;;;15.90;99.90;;;;;;5062185;28;20468;-93
2021/05/28 07:54:55;;;;;;;3.10;0.95;;;16.00;99.90;;;;;;5059798;28;20052;-94
2021/05/28 07:57:22;;;;;;;5.63;1.40;;;16.10;99.90;;;;;;5060263;28;20045;-94
2021/05/28 07:59:49;;;;;;;2.97;1.35;;;16.10;99.90;;;;;;5061215;28;20068;-96
2021/05/28 08:02:18;;;;;;;1.35;1.25;;;15.70;99.90;;;;;;5063731;28;20060;-94
2021/05/28 08:04:45;;;;;;;3.50;1.50;;;14.80;99.90;;;;;;5082954;28;20048;-94
2021/05/28 08:07:13;;;;;;;5.85;1.98;;;14.20;99.90;;;;;;5062697;28;20075;-95
2021/05/28 08:09:39;;;;;;;1.10;0.98;;;14.20;99.90;;;;;;5063976;28;20057;-94
2021/05/28 08:12:06;;;;;;;4.32;1.23;;;14.10;99.90;;;;;;5048009;28;20049;-96
2021/05/28 08:14:35;;;;;;;3.72;1.35;;;14.20;99.90;;;;;;5042707;28;20049;-93
2021/05/28 08:17:02;;;;;;;3.72;1.33;;;14.30;99.90;;;;;;5040491;28;20055;-96
2021/05/28 08:19:28;;;;;;;2.25;1.40;;;14.40;99.90;;;;;;5058682;28;20136;-94
2021/05/28 08:21:57;;;;;;;3.95;1.40;;;14.30;99.90;;;;;;5042065;28;20063;-95
2021/05/28 08:24:24;;;;;;;5.93;1.02;;;14.40;99.90;;;;;;5026194;28;20412;-94
2021/05/28 08:26:51;;;;;;;3.38;1.13;;;14.70;99.90;;;;;;5041218;28;20081;-95
2021/05/28 08:29:18;;;;;;;4.70;1.10;;;14.90;99.90;;;;;;5025484;28;20408;-93
2021/05/28 08:31:45;;;;;;;5.15;1.48;;;14.70;99.90;;;;;;5057218;28;20049;-94
2021/05/28 08:34:11;;;;;;;5.03;1.10;;;14.80;99.90;;;;;;5048272;28;20053;-95
2021/05/28 08:36:38;;;;;;;2.45;1.20;;;14.80;99.90;;;;;;5038505;28;20055;-95
2021/05/28 08:39:05;;;;;;;1.42;1.20;;;15.00;99.90;;;;;;5040998;28;20045;-96
2021/05/28 08:41:34;;;;;;;7.22;1.67;;;15.40;99.90;;;;;;5057090;28;20127;-94
2021/05/28 08:44:01;;;;;;;1.70;1.10;;;15.30;99.90;;;;;;5023813;28;20076;-94
2021/05/28 08:46:29;;;;;;;4.43;1.40;;;15.20;99.90;;;;;;5038518;28;20493;-95
2021/05/28 08:48:56;;;;;;;1.65;1.15;;;15.10;99.90;;;;;;5041497;28;20127;-94
2021/05/28 08:51:23;;;;;;;4.25;1.50;;;14.70;99.90;;;;;;5043308;28;20048;-94
2021/05/28 08:53:50;;;;;;;3.65;1.00;;;14.90;99.90;;;;;;5040978;28;20048;-92
2021/05/28 08:56:17;;;;;;;3.90;1.00;;;14.80;99.90;;;;;;5047160;28;20551;-93
2021/05/28 08:58:44;;;;;;;6.53;1.40;;;14.70;99.90;;;;;;5041758;28;20048;-94
2021/05/28 09:01:19;;;;;;;2.70;1.20;;;14.80;99.90;;;;;;5039661;28;20063;-96
2021/05/28 09:04:00;;;;;;;2.10;1.15;;;15.20;99.90;;;;;;5058103;28;20056;-94
2021/05/28 09:06:47;;;;;;;1.20;0.85;;;15.20;99.90;;;;;;5039157;28;20128;-94
2021/05/28 09:09:15;;;;;;;1.88;0.93;;;15.50;99.90;;;;;;5037667;28;20059;-94
2021/05/28 09:12:01;;;;;;;3.38;1.10;;;15.60;99.90;;;;;;5037709;28;20232;-93
2021/05/28 09:14:40;;;;;;;3.60;1.00;;;16.30;99.90;;;;;;5037813;28;20064;-92
2021/05/28 09:17:09;;;;;;;3.40;1.17;;;16.60;99.90;;;;;;5038951;28;20577;-93
2021/05/28 09:19:38;;;;;;;1.70;0.95;;;16.30;99.90;;;;;;5042354;28;20136;-95
2021/05/28 09:22:07;;;;;;;2.90;1.23;;;15.50;99.90;;;;;;5041993;28;20071;-94
2021/05/28 09:24:36;;;;;;;3.05;0.98;;;15.30;99.90;;;;;;5042220;28;20083;-93
2021/05/28 09:27:28;;;;;;;3.90;1.13;;;15.30;99.90;;;;;;5045259;28;20049;-96
2021/05/28 09:30:02;;;;;;;4.50;0.90;;;15.50;99.90;;;;;;5038626;28;20069;-95
2021/05/28 09:32:29;;;;;;;2.15;1.33;;;15.90;99.90;;;;;;5040211;28;20131;-92
2021/05/28 09:34:59;;;;;;;2.47;1.10;;;15.60;99.90;;;;;;5038522;28;20057;-94
2021/05/28 09:37:47;;;;;;;2.28;1.00;;;15.30;99.90;;;;;;5039149;28;20048;-95
2021/05/28 09:40:22;;;;;;;1.73;0.80;;;15.60;99.90;;;;;;5038160;28;20045;-95
2021/05/28 09:42:52;;;;;;;1.95;0.90;;;15.90;99.90;;;;;;5040297;28;20112;-96
2021/05/28 09:45:38;;;;;;;1.42;0.50;;;16.20;99.90;;;;;;5040643;28;20052;-95
2021/05/28 09:48:14;;;;;;;2.15;1.10;;;16.50;99.90;;;;;;5039725;28;20065;-95
2021/05/28 09:50:48;;;;;;;1.73;0.52;;;17.20;99.90;;;;;;5044988;28;20063;-96
2021/05/28 09:53:34;;;;;;;1.08;0.40;;;17.40;99.90;;;;;;5039876;28;20079;-93
2021/05/28 09:56:22;;;;;;;3.25;0.60;;;18.00;99.90;;;;;;5043234;28;20131;-94
2021/05/28 09:59:06;;;;;;;1.17;0.60;;;18.30;99.90;;;;;;5083496;22;20491;-81
2021/05/28 10:01:53;;;;;;;1.85;0.60;;;19.10;99.90;;;;;;5097025;28;20082;-81
2021/05/28 10:04:20;;;;;;;2.83;0.98;;;19.40;99.90;;;;;;5097829;28;20050;-80
2021/05/28 10:06:49;;;;;;;3.35;1.00;;;19.00;99.90;;;;;;5075066;28;20517;-80
2021/05/28 10:09:17;;;;;;;1.00;0.73;;;18.80;99.90;;;;;;5075799;28;20052;-81
2021/05/28 10:11:48;;;;;;;2.35;0.95;;;20.70;99.00;;;;;;5091360;28;20048;-79
2021/05/28 10:14:15;;;;;;;5.85;2.78;;;24.00;78.10;;;;;;5073802;28;20131;-84
2021/05/28 10:16:42;;;;;;;1.42;0.73;;;27.60;67.40;;;;;;5075599;28;20079;-85
2021/05/28 10:19:09;;;;;;;1.45;0.40;;;28.40;53.30;;;;;;5076157;28;20483;-80
2021/05/28 10:21:41;;;;;;;3.78;0.57;;;25.50;53.00;;;;;;5074909;28;20122;-81
2021/05/28 10:24:08;;;;;;;2.15;0.60;;;24.90;57.40;;;;;;5074407;28;20076;-82
2021/05/28 10:26:35;;;;;;;0.88;0.60;;;25.10;60.00;;;;;;5075029;28;20135;-83
2021/05/28 10:29:03;;;;;;;4.25;0.60;;;25.90;55.30;;;;;;5076067;28;20052;-82
2021/05/28 10:31:53;;;;;;;0.50;0.45;;;24.50;56.60;;;;;;5077697;28;20080;-81
2021/05/28 10:34:21;;;;;;;1.55;0.75;;;22.60;61.70;;;;;;5075958;28;20062;-82
2021/05/28 10:36:48;;;;;;;0.90;0.70;;;21.50;65.30;;;;;;5074845;28;20123;-82
2021/05/28 10:39:17;;;;;;;1.17;0.70;;;20.90;73.30;;;;;;5074726;28;20076;-84
2021/05/28 10:41:46;;;;;;;5.43;1.10;;;22.90;70.20;;;;;;5076552;28;20103;-83
2021/05/28 10:44:19;;;;;;;3.25;0.63;;;25.10;64.50;;;;;;5078531;28;20143;-84
2021/05/28 10:47:18;;;;;;;1.25;0.60;;;26.90;56.70;;;;;;5076458;28;20048;-82
2021/05/28 10:49:46;;;;;;;0.63;0.50;;;28.10;49.90;;;;;;5074706;28;20471;-81
2021/05/28 10:52:25;;;;;;;2.60;0.60;;;27.40;49.60;;;;;;5076237;28;20091;-82
2021/05/28 10:54:54;;;;;;;1.02;0.60;;;26.60;50.90;;;;;;5075744;28;20079;-79
2021/05/28 10:57:30;;;;;;;0.60;0.60;;;27.20;50.60;;;;;;5077039;28;20048;-79
2021/05/28 11:00:01;;;;;;;4.82;1.20;;;26.90;49.60;;;;;;5076710;28;20067;-80
2021/05/28 11:02:48;;;;;;;3.75;0.73;;;28.80;49.90;;;;;;5092879;28;20083;-80
2021/05/28 11:05:17;;;;;;;1.05;0.57;;;28.60;48.80;;;;;;5074188;28;20084;-80
2021/05/28 11:07:46;;;;;;;1.38;0.60;;;29.00;49.70;;;;;;5074906;28;20136;-79
2021/05/28 11:10:20;;;;;;;2.50;0.43;;;29.70;46.70;;;;;;5092120;28;20136;-82
2021/05/28 11:12:47;;;;;;;2.47;0.47;;;28.50;45.20;;;;;;5074997;28;20052;-81
2021/05/28 11:15:28;;;;;;;1.67;0.65;;;26.00;47.30;;;;;;5075337;28;20463;-82
2021/05/28 11:18:01;;;;;;;5.35;0.60;;;23.90;51.70;;;;;;5076431;28;20123;-82
2021/05/28 11:20:33;;;;;;;2.28;0.60;;;22.80;55.80;;;;;;5077901;28;20553;-80
2021/05/28 11:23:12;;;;;;;0.83;0.57;;;21.40;56.60;;;;;;5095551;28;20045;-84
2021/05/28 11:25:52;;;;;;;2.63;0.98;;;20.10;59.70;;;;;;5077725;28;20135;-79
2021/05/28 11:28:20;;;;;;;3.78;0.88;;;18.80;64.40;;;;;;5078249;28;20131;-82
2021/05/28 11:30:54;;;;;;;1.63;0.93;;;18.20;67.90;;;;;;5075440;28;20056;-82
2021/05/28 11:33:33;;;;;;;1.10;0.68;;;18.20;75.30;;;;;;5076349;28;20111;-82
2021/05/28 11:36:16;;;;;;;1.95;0.60;;;18.30;73.00;;;;;;5093923;28;20040;-83
2021/05/28 11:38:43;;;;;;;3.25;0.75;;;18.60;72.40;;;;;;5078350;28;20579;-81
2021/05/28 11:41:10;;;;;;;0.60;0.60;;;18.90;71.20;;;;;;5077247;28;20049;-82
2021/05/28 11:43:37;;;;;;;5.60;0.77;;;18.90;72.30;;;;;;5076636;28;20068;-81
2021/05/28 11:46:04;;;;;;;3.17;0.80;;;19.50;70.70;;;;;;5076813;28;20052;-82
2021/05/28 11:48:32;;;;;;;0.70;0.70;;;19.30;72.10;;;;;;5076054;28;20557;-81
2021/05/28 11:51:01;;;;;;;3.45;0.70;;;19.40;68.10;;;;;;5076042;28;20076;-81
2021/05/28 11:53:32;;;;;;;0.77;0.70;;;19.20;68.70;;;;;;5079254;28;20049;-81
2021/05/28 11:56:00;;;;;;;3.63;0.80;;;18.40;70.20;;;;;;5075944;28;20453;-83
2021/05/28 11:58:31;;;;;;;5.63;1.13;;;18.20;74.40;;;;;;5075997;28;20106;-83
2021/05/28 12:01:00;;;;;;;5.35;0.90;;;18.10;73.40;;;;;;5077069;28;20048;-82
2021/05/28 12:03:27;;;;;;;3.45;0.90;;;17.80;76.30;;;;;;5075517;28;20052;-81
2021/05/28 12:05:55;;;;;;;3.33;0.90;;;17.70;76.70;;;;;;5076414;28;20534;-84
2021/05/28 12:08:28;;;;;;;6.13;1.15;;;17.60;82.50;;;;;;5079454;28;20510;-81
2021/05/28 12:10:56;;;;;;;;;;;17.50;80.10;;;;;;5092500;28;20075;-80
2021/05/28 12:13:49;;;;;;;3.35;1.30;;;17.70;84.00;;;;;;5075005;28;19946;-79
2021/05/28 12:16:20;;;;;;;4.80;1.00;;;17.70;85.10;;;;;;5070019;28;20139;-83
2021/05/28 12:18:48;;;;;;;1.10;1.00;;;18.20;87.50;;;;;;5090546;28;20048;-81
2021/05/28 12:21:23;;;;;;;2.72;0.90;;;18.90;81.10;;;;;;5073672;28;20128;-83
2021/05/28 12:23:53;;;;;;;2.67;0.80;;;19.50;78.60;;;;;;5074761;28;20067;-81
2021/05/28 12:26:23;;;;;;;1.00;0.80;;;19.00;79.40;;;;;;5075898;28;20087;-83
2021/05/28 12:28:56;;;;;;;3.70;0.73;;;19.60;79.00;;;;;;5077122;28;20510;-81
2021/05/28 12:31:27;;;;;;;0.98;0.90;;;19.50;75.70;;;;;;5076522;28;20051;-81
2021/05/28 12:34:05;;;;;;;3.22;1.02;;;19.40;74.30;;;;;;5093906;28;20056;-82
2021/05/28 12:36:37;;;;;;;4.22;0.90;;;19.30;75.60;;;;;;5076751;28;20098;-81
2021/05/28 12:39:12;;;;;;;2.13;1.90;;;19.10;76.80;;;;;;5076684;28;20072;-81
2021/05/28 12:41:42;;;;;;;21.33;10.52;;;19.00;75.50;;;;;;5075865;28;20548;-81
2021/05/28 12:44:10;;;;;;;24.77;11.90;;;18.70;75.80;;;;;;5076231;28;20132;-81
2021/05/28 12:46:38;;;;;;;5.95;2.97;;;18.90;77.60;;;;;;5078058;28;20127;-82
2021/05/28 12:49:07;;;;;;;2.50;1.67;;;19.40;78.80;;;;;;5077020;28;20056;-84
2021/05/28 12:51:41;;;;;;;4.72;0.80;;;19.70;76.20;;;;;;5078340;28;20105;-83
2021/05/28 12:54:21;;;;;;;24.90;14.30;;;19.60;71.20;;;;;;5078629;28;20049;-82
2021/05/28 12:56:50;;;;;;;4.60;1.73;;;19.40;70.40;;;;;;5078149;28;20044;-81
2021/05/28 12:59:25;;;;;;;9.88;6.47;;;19.50;71.10;;;;;;5078362;28;20095;-82